Terminal Aerodrome Forecast
Issued by NWS

Home | Current Version | Previous Version | Text Only | Print | Product List | Glossary On
Versions: 1 2 3 4 5 6 7 8 9 10 11 12 13 14 15 16 17 18 19 20 21 22 23 24 25 26 27
334
FTUS43 KILX 281131
TAFBMI
TAF
KBMI 281131Z 2812/2912 16005KT 6SM BR SCT025 BKN200
      TEMPO 2812/2814 2SM BR BKN025
     FM281400 24007KT P6SM BKN025
     FM281600 30010KT P6SM VCTS BKN045CB
     FM281900 31013KT P6SM BKN130
     FM290000 29007KT P6SM FEW200=

USA.gov is the U.S. government's official web portal to all federal, state and local government web resources and services.